sensor_id;sensor_type;location;lat;lon;timestamp;P1;durP1;ratioP1;P2;durP2;ratioP2
55720;SDS011;41626;53.098;6.168;2023-04-24T00:01:47;5.68;;;3.70;;
55720;SDS011;41626;53.098;6.168;2023-04-24T00:04:13;3.10;;;2.80;;
55720;SDS011;41626;53.098;6.168;2023-04-24T00:06:41;3.47;;;3.17;;
55720;SDS011;41626;53.098;6.168;2023-04-24T00:09:08;4.50;;;3.58;;
55720;SDS011;41626;53.098;6.168;2023-04-24T00:11:35;4.43;;;4.03;;
55720;SDS011;41626;53.098;6.168;2023-04-24T00:14:01;4.40;;;4.00;;
55720;SDS011;41626;53.098;6.168;2023-04-24T00:16:27;4.78;;;3.83;;
55720;SDS011;41626;53.098;6.168;2023-04-24T00:18:53;4.13;;;3.20;;
55720;SDS011;41626;53.098;6.168;2023-04-24T00:21:19;5.27;;;2.70;;
55720;SDS011;41626;53.098;6.168;2023-04-24T00:23:45;3.10;;;2.63;;
55720;SDS011;41626;53.098;6.168;2023-04-24T00:26:12;2.47;;;2.10;;
55720;SDS011;41626;53.098;6.168;2023-04-24T00:28:37;3.03;;;1.90;;
55720;SDS011;41626;53.098;6.168;2023-04-24T00:31:03;3.30;;;2.00;;
55720;SDS011;41626;53.098;6.168;2023-04-24T00:33:28;2.30;;;1.80;;
55720;SDS011;41626;53.098;6.168;2023-04-24T00:35:54;2.13;;;1.88;;
55720;SDS011;41626;53.098;6.168;2023-04-24T00:38:20;1.80;;;1.70;;
55720;SDS011;41626;53.098;6.168;2023-04-24T00:40:47;6.50;;;2.47;;
55720;SDS011;41626;53.098;6.168;2023-04-24T00:43:14;2.55;;;2.05;;
55720;SDS011;41626;53.098;6.168;2023-04-24T00:45:40;3.42;;;2.35;;
55720;SDS011;41626;53.098;6.168;2023-04-24T00:48:06;2.42;;;2.20;;
55720;SDS011;41626;53.098;6.168;2023-04-24T00:50:33;3.80;;;2.60;;
55720;SDS011;41626;53.098;6.168;2023-04-24T00:53:00;2.42;;;2.15;;
55720;SDS011;41626;53.098;6.168;2023-04-24T00:55:26;2.70;;;2.20;;
55720;SDS011;41626;53.098;6.168;2023-04-24T00:57:52;2.85;;;2.40;;
55720;SDS011;41626;53.098;6.168;2023-04-24T01:00:17;2.60;;;2.40;;
55720;SDS011;41626;53.098;6.168;2023-04-24T01:02:44;3.20;;;2.80;;
55720;SDS011;41626;53.098;6.168;2023-04-24T01:05:11;2.90;;;2.45;;
55720;SDS011;41626;53.098;6.168;2023-04-24T01:07:38;3.47;;;2.75;;
55720;SDS011;41626;53.098;6.168;2023-04-24T01:10:06;4.18;;;3.38;;
55720;SDS011;41626;53.098;6.168;2023-04-24T01:12:33;3.17;;;2.90;;
55720;SDS011;41626;53.098;6.168;2023-04-24T01:14:59;3.60;;;3.17;;
55720;SDS011;41626;53.098;6.168;2023-04-24T01:17:25;4.23;;;2.97;;
55720;SDS011;41626;53.098;6.168;2023-04-24T01:19:50;2.50;;;2.30;;
55720;SDS011;41626;53.098;6.168;2023-04-24T01:22:21;3.17;;;2.60;;
55720;SDS011;41626;53.098;6.168;2023-04-24T01:24:47;2.97;;;2.67;;
55720;SDS011;41626;53.098;6.168;2023-04-24T01:27:13;5.68;;;3.50;;
55720;SDS011;41626;53.098;6.168;2023-04-24T01:29:39;3.85;;;3.15;;
55720;SDS011;41626;53.098;6.168;2023-04-24T01:32:05;3.17;;;2.60;;
55720;SDS011;41626;53.098;6.168;2023-04-24T01:34:32;3.25;;;2.50;;
55720;SDS011;41626;53.098;6.168;2023-04-24T01:36:59;2.90;;;2.70;;
55720;SDS011;41626;53.098;6.168;2023-04-24T01:39:25;2.93;;;2.73;;
55720;SDS011;41626;53.098;6.168;2023-04-24T01:41:53;3.80;;;2.80;;
55720;SDS011;41626;53.098;6.168;2023-04-24T01:44:19;2.60;;;2.40;;
55720;SDS011;41626;53.098;6.168;2023-04-24T01:46:46;3.08;;;2.55;;
55720;SDS011;41626;53.098;6.168;2023-04-24T01:49:11;3.13;;;2.72;;
55720;SDS011;41626;53.098;6.168;2023-04-24T01:51:37;3.13;;;2.83;;
55720;SDS011;41626;53.098;6.168;2023-04-24T01:54:03;3.40;;;3.10;;
55720;SDS011;41626;53.098;6.168;2023-04-24T01:56:30;3.50;;;3.13;;
55720;SDS011;41626;53.098;6.168;2023-04-24T01:58:58;6.95;;;3.35;;
55720;SDS011;41626;53.098;6.168;2023-04-24T02:01:25;3.30;;;3.00;;
55720;SDS011;41626;53.098;6.168;2023-04-24T02:03:51;9.68;;;3.70;;
55720;SDS011;41626;53.098;6.168;2023-04-24T02:06:17;3.75;;;3.45;;
55720;SDS011;41626;53.098;6.168;2023-04-24T02:08:42;3.80;;;3.50;;
55720;SDS011;41626;53.098;6.168;2023-04-24T02:11:08;4.00;;;3.63;;
55720;SDS011;41626;53.098;6.168;2023-04-24T02:13:35;4.25;;;3.88;;
55720;SDS011;41626;53.098;6.168;2023-04-24T02:16:00;3.80;;;3.50;;
55720;SDS011;41626;53.098;6.168;2023-04-24T02:18:26;4.18;;;3.78;;
55720;SDS011;41626;53.098;6.168;2023-04-24T02:20:52;4.57;;;4.03;;
55720;SDS011;41626;53.098;6.168;2023-04-24T02:23:18;5.07;;;4.57;;
55720;SDS011;41626;53.098;6.168;2023-04-24T02:25:43;5.45;;;4.95;;
55720;SDS011;41626;53.098;6.168;2023-04-24T02:28:09;5.50;;;5.00;;
55720;SDS011;41626;53.098;6.168;2023-04-24T02:30:34;5.87;;;5.37;;
55720;SDS011;41626;53.098;6.168;2023-04-24T02:33:00;5.80;;;5.30;;
55720;SDS011;41626;53.098;6.168;2023-04-24T02:35:26;5.82;;;5.40;;
55720;SDS011;41626;53.098;6.168;2023-04-24T02:37:51;6.40;;;5.80;;
55720;SDS011;41626;53.098;6.168;2023-04-24T02:40:17;6.10;;;5.60;;
55720;SDS011;41626;53.098;6.168;2023-04-24T02:42:43;6.93;;;6.40;;
55720;SDS011;41626;53.098;6.168;2023-04-24T02:45:08;6.53;;;5.60;;
55720;SDS011;41626;53.098;6.168;2023-04-24T02:47:34;6.80;;;6.07;;
55720;SDS011;41626;53.098;6.168;2023-04-24T02:50:01;7.07;;;6.47;;
55720;SDS011;41626;53.098;6.168;2023-04-24T02:52:27;7.80;;;7.20;;
55720;SDS011;41626;53.098;6.168;2023-04-24T02:54:53;8.95;;;8.10;;
55720;SDS011;41626;53.098;6.168;2023-04-24T02:57:19;8.30;;;7.60;;
55720;SDS011;41626;53.098;6.168;2023-04-24T02:59:44;8.05;;;7.35;;
55720;SDS011;41626;53.098;6.168;2023-04-24T03:02:10;9.10;;;8.20;;
55720;SDS011;41626;53.098;6.168;2023-04-24T03:04:36;8.33;;;7.73;;
55720;SDS011;41626;53.098;6.168;2023-04-24T03:07:01;10.47;;;9.47;;
55720;SDS011;41626;53.098;6.168;2023-04-24T03:09:27;10.45;;;9.55;;
55720;SDS011;41626;53.098;6.168;2023-04-24T03:11:53;10.57;;;9.77;;
55720;SDS011;41626;53.098;6.168;2023-04-24T03:14:18;10.07;;;9.27;;
55720;SDS011;41626;53.098;6.168;2023-04-24T03:16:44;10.32;;;9.48;;
55720;SDS011;41626;53.098;6.168;2023-04-24T03:19:10;11.37;;;10.40;;
55720;SDS011;41626;53.098;6.168;2023-04-24T03:21:35;11.77;;;10.73;;
55720;SDS011;41626;53.098;6.168;2023-04-24T03:24:05;12.43;;;11.40;;
55720;SDS011;41626;53.098;6.168;2023-04-24T03:26:34;12.10;;;11.10;;
55720;SDS011;41626;53.098;6.168;2023-04-24T03:29:00;12.80;;;11.70;;
55720;SDS011;41626;53.098;6.168;2023-04-24T03:31:26;12.82;;;11.70;;
55720;SDS011;41626;53.098;6.168;2023-04-24T03:33:52;12.93;;;11.83;;
55720;SDS011;41626;53.098;6.168;2023-04-24T03:36:17;13.10;;;11.90;;
55720;SDS011;41626;53.098;6.168;2023-04-24T03:38:44;13.65;;;12.45;;
55720;SDS011;41626;53.098;6.168;2023-04-24T03:41:10;12.40;;;11.10;;
55720;SDS011;41626;53.098;6.168;2023-04-24T03:43:36;13.75;;;12.50;;
55720;SDS011;41626;53.098;6.168;2023-04-24T03:46:03;14.43;;;13.02;;
55720;SDS011;41626;53.098;6.168;2023-04-24T03:48:28;14.25;;;12.95;;
55720;SDS011;41626;53.098;6.168;2023-04-24T03:50:55;13.00;;;11.82;;
55720;SDS011;41626;53.098;6.168;2023-04-24T03:53:20;13.23;;;11.95;;
55720;SDS011;41626;53.098;6.168;2023-04-24T03:55:46;12.48;;;11.18;;
55720;SDS011;41626;53.098;6.168;2023-04-24T03:58:12;9.48;;;8.68;;
55720;SDS011;41626;53.098;6.168;2023-04-24T04:00:39;7.07;;;6.38;;
55720;SDS011;41626;53.098;6.168;2023-04-24T04:03:05;4.00;;;3.67;;
55720;SDS011;41626;53.098;6.168;2023-04-24T04:05:31;3.97;;;2.90;;
55720;SDS011;41626;53.098;6.168;2023-04-24T04:07:57;3.25;;;2.38;;
55720;SDS011;41626;53.098;6.168;2023-04-24T04:10:23;4.30;;;2.45;;
55720;SDS011;41626;53.098;6.168;2023-04-24T04:12:48;2.40;;;2.20;;
55720;SDS011;41626;53.098;6.168;2023-04-24T04:15:14;2.00;;;1.90;;
55720;SDS011;41626;53.098;6.168;2023-04-24T04:17:40;2.20;;;2.00;;
55720;SDS011;41626;53.098;6.168;2023-04-24T04:20:05;1.70;;;1.40;;
55720;SDS011;41626;53.098;6.168;2023-04-24T04:22:35;1.30;;;1.20;;
55720;SDS011;41626;53.098;6.168;2023-04-24T04:25:01;1.92;;;1.40;;
55720;SDS011;41626;53.098;6.168;2023-04-24T04:27:27;1.90;;;1.30;;
55720;SDS011;41626;53.098;6.168;2023-04-24T04:29:54;2.10;;;1.42;;
55720;SDS011;41626;53.098;6.168;2023-04-24T04:32:21;2.10;;;1.08;;
55720;SDS011;41626;53.098;6.168;2023-04-24T04:34:47;1.50;;;1.05;;
55720;SDS011;41626;53.098;6.168;2023-04-24T04:37:14;1.83;;;0.90;;
55720;SDS011;41626;53.098;6.168;2023-04-24T04:39:40;2.55;;;1.00;;
55720;SDS011;41626;53.098;6.168;2023-04-24T04:42:06;1.25;;;1.00;;
55720;SDS011;41626;53.098;6.168;2023-04-24T04:44:31;2.13;;;1.30;;
55720;SDS011;41626;53.098;6.168;2023-04-24T04:46:57;1.70;;;1.30;;
55720;SDS011;41626;53.098;6.168;2023-04-24T04:49:25;3.03;;;1.50;;
55720;SDS011;41626;53.098;6.168;2023-04-24T04:51:53;1.65;;;1.42;;
55720;SDS011;41626;53.098;6.168;2023-04-24T04:54:19;1.60;;;1.10;;
55720;SDS011;41626;53.098;6.168;2023-04-24T04:56:44;3.42;;;1.75;;
55720;SDS011;41626;53.098;6.168;2023-04-24T04:59:10;2.53;;;1.50;;
55720;SDS011;41626;53.098;6.168;2023-04-24T05:01:37;2.30;;;1.88;;
55720;SDS011;41626;53.098;6.168;2023-04-24T05:04:03;4.00;;;2.20;;
55720;SDS011;41626;53.098;6.168;2023-04-24T05:06:29;5.95;;;2.80;;
55720;SDS011;41626;53.098;6.168;2023-04-24T05:08:55;5.00;;;2.50;;
55720;SDS011;41626;53.098;6.168;2023-04-24T05:11:22;3.53;;;2.58;;
55720;SDS011;41626;53.098;6.168;2023-04-24T05:13:48;4.38;;;2.10;;
55720;SDS011;41626;53.098;6.168;2023-04-24T05:16:14;5.07;;;2.63;;
55720;SDS011;41626;53.098;6.168;2023-04-24T05:18:39;4.72;;;2.08;;
55720;SDS011;41626;53.098;6.168;2023-04-24T05:21:06;4.80;;;2.17;;
55720;SDS011;41626;53.098;6.168;2023-04-24T05:23:31;5.13;;;2.20;;
55720;SDS011;41626;53.098;6.168;2023-04-24T05:25:57;3.60;;;2.45;;
55720;SDS011;41626;53.098;6.168;2023-04-24T05:28:22;3.23;;;2.80;;
55720;SDS011;41626;53.098;6.168;2023-04-24T05:30:48;3.60;;;3.27;;
55720;SDS011;41626;53.098;6.168;2023-04-24T05:33:14;3.90;;;3.33;;
55720;SDS011;41626;53.098;6.168;2023-04-24T05:35:40;3.90;;;3.47;;
55720;SDS011;41626;53.098;6.168;2023-04-24T05:38:12;3.92;;;3.47;;
55720;SDS011;41626;53.098;6.168;2023-04-24T05:40:38;4.47;;;3.88;;
55720;SDS011;41626;53.098;6.168;2023-04-24T05:43:04;4.35;;;3.83;;
55720;SDS011;41626;53.098;6.168;2023-04-24T05:45:30;7.50;;;4.50;;
55720;SDS011;41626;53.098;6.168;2023-04-24T05:47:56;5.63;;;4.10;;
55720;SDS011;41626;53.098;6.168;2023-04-24T05:50:22;6.00;;;3.75;;
55720;SDS011;41626;53.098;6.168;2023-04-24T05:52:48;5.35;;;4.03;;
55720;SDS011;41626;53.098;6.168;2023-04-24T05:55:13;7.75;;;4.57;;
55720;SDS011;41626;53.098;6.168;2023-04-24T05:57:42;8.70;;;6.93;;
55720;SDS011;41626;53.098;6.168;2023-04-24T06:00:09;7.13;;;5.73;;
55720;SDS011;41626;53.098;6.168;2023-04-24T06:02:37;6.82;;;5.10;;
55720;SDS011;41626;53.098;6.168;2023-04-24T06:05:03;7.73;;;5.40;;
55720;SDS011;41626;53.098;6.168;2023-04-24T06:07:30;6.63;;;4.50;;
55720;SDS011;41626;53.098;6.168;2023-04-24T06:09:56;4.75;;;3.80;;
55720;SDS011;41626;53.098;6.168;2023-04-24T06:12:22;4.47;;;2.90;;
55720;SDS011;41626;53.098;6.168;2023-04-24T06:14:48;6.85;;;3.33;;
55720;SDS011;41626;53.098;6.168;2023-04-24T06:17:15;3.55;;;2.33;;
55720;SDS011;41626;53.098;6.168;2023-04-24T06:19:41;2.25;;;1.90;;
55720;SDS011;41626;53.098;6.168;2023-04-24T06:22:07;3.83;;;2.15;;
55720;SDS011;41626;53.098;6.168;2023-04-24T06:24:33;4.32;;;1.88;;
55720;SDS011;41626;53.098;6.168;2023-04-24T06:26:59;4.20;;;1.88;;
55720;SDS011;41626;53.098;6.168;2023-04-24T06:29:25;3.05;;;1.88;;
55720;SDS011;41626;53.098;6.168;2023-04-24T06:31:51;4.10;;;1.73;;
55720;SDS011;41626;53.098;6.168;2023-04-24T06:34:16;1.80;;;1.40;;
55720;SDS011;41626;53.098;6.168;2023-04-24T06:36:42;4.47;;;1.10;;
55720;SDS011;41626;53.098;6.168;2023-04-24T06:39:08;4.13;;;1.20;;
55720;SDS011;41626;53.098;6.168;2023-04-24T06:41:34;2.75;;;1.05;;
55720;SDS011;41626;53.098;6.168;2023-04-24T06:44:00;2.78;;;1.05;;
55720;SDS011;41626;53.098;6.168;2023-04-24T06:46:25;4.90;;;2.20;;
55720;SDS011;41626;53.098;6.168;2023-04-24T06:48:53;7.50;;;2.00;;
55720;SDS011;41626;53.098;6.168;2023-04-24T06:51:22;5.25;;;2.05;;
55720;SDS011;41626;53.098;6.168;2023-04-24T06:53:48;5.90;;;2.00;;
55720;SDS011;41626;53.098;6.168;2023-04-24T06:56:15;3.55;;;1.95;;
55720;SDS011;41626;53.098;6.168;2023-04-24T06:58:40;4.75;;;2.05;;
55720;SDS011;41626;53.098;6.168;2023-04-24T07:01:07;3.33;;;1.40;;
55720;SDS011;41626;53.098;6.168;2023-04-24T07:03:32;3.30;;;1.70;;
55720;SDS011;41626;53.098;6.168;2023-04-24T07:05:58;5.88;;;2.20;;
55720;SDS011;41626;53.098;6.168;2023-04-24T07:08:24;8.00;;;2.30;;
55720;SDS011;41626;53.098;6.168;2023-04-24T07:10:50;6.43;;;2.35;;
55720;SDS011;41626;53.098;6.168;2023-04-24T07:13:16;11.40;;;2.47;;
55720;SDS011;41626;53.098;6.168;2023-04-24T07:15:42;5.88;;;2.13;;
55720;SDS011;41626;53.098;6.168;2023-04-24T07:18:08;4.28;;;2.42;;
55720;SDS011;41626;53.098;6.168;2023-04-24T07:20:34;6.17;;;3.63;;
55720;SDS011;41626;53.098;6.168;2023-04-24T07:23:00;7.77;;;4.03;;
55720;SDS011;41626;53.098;6.168;2023-04-24T07:25:26;6.47;;;4.83;;
55720;SDS011;41626;53.098;6.168;2023-04-24T07:27:52;8.73;;;5.70;;
55720;SDS011;41626;53.098;6.168;2023-04-24T07:30:18;9.30;;;6.05;;
55720;SDS011;41626;53.098;6.168;2023-04-24T07:32:43;10.98;;;6.60;;
55720;SDS011;41626;53.098;6.168;2023-04-24T07:35:09;15.50;;;9.25;;
55720;SDS011;41626;53.098;6.168;2023-04-24T07:37:35;14.13;;;10.20;;
55720;SDS011;41626;53.098;6.168;2023-04-24T07:40:01;18.63;;;10.80;;
55720;SDS011;41626;53.098;6.168;2023-04-24T07:42:27;16.13;;;10.55;;
55720;SDS011;41626;53.098;6.168;2023-04-24T07:44:55;14.40;;;10.20;;
55720;SDS011;41626;53.098;6.168;2023-04-24T07:47:21;13.87;;;9.20;;
55720;SDS011;41626;53.098;6.168;2023-04-24T07:49:47;13.82;;;9.85;;
55720;SDS011;41626;53.098;6.168;2023-04-24T07:52:12;13.47;;;9.63;;
55720;SDS011;41626;53.098;6.168;2023-04-24T07:54:38;13.13;;;9.57;;
55720;SDS011;41626;53.098;6.168;2023-04-24T07:57:04;15.33;;;9.80;;
55720;SDS011;41626;53.098;6.168;2023-04-24T07:59:31;15.52;;;10.05;;
55720;SDS011;41626;53.098;6.168;2023-04-24T08:01:57;15.67;;;9.50;;
55720;SDS011;41626;53.098;6.168;2023-04-24T08:04:23;13.20;;;8.93;;
55720;SDS011;41626;53.098;6.168;2023-04-24T08:06:48;20.00;;;12.57;;
55720;SDS011;41626;53.098;6.168;2023-04-24T08:09:14;14.27;;;10.52;;
55720;SDS011;41626;53.098;6.168;2023-04-24T08:11:40;20.27;;;12.07;;
55720;SDS011;41626;53.098;6.168;2023-04-24T08:14:05;19.20;;;12.15;;
55720;SDS011;41626;53.098;6.168;2023-04-24T08:16:32;16.50;;;11.27;;
55720;SDS011;41626;53.098;6.168;2023-04-24T08:18:58;16.13;;;11.05;;
55720;SDS011;41626;53.098;6.168;2023-04-24T08:21:24;23.02;;;10.65;;
55720;SDS011;41626;53.098;6.168;2023-04-24T08:23:52;15.63;;;10.73;;
55720;SDS011;41626;53.098;6.168;2023-04-24T08:26:17;13.77;;;9.60;;
55720;SDS011;41626;53.098;6.168;2023-04-24T08:28:43;15.10;;;10.10;;
55720;SDS011;41626;53.098;6.168;2023-04-24T08:31:09;12.38;;;9.93;;
55720;SDS011;41626;53.098;6.168;2023-04-24T08:33:35;13.98;;;8.65;;
55720;SDS011;41626;53.098;6.168;2023-04-24T08:36:04;13.65;;;8.70;;
55720;SDS011;41626;53.098;6.168;2023-04-24T08:38:30;13.20;;;8.05;;
55720;SDS011;41626;53.098;6.168;2023-04-24T08:40:57;13.00;;;6.18;;
55720;SDS011;41626;53.098;6.168;2023-04-24T08:43:24;8.98;;;5.40;;
55720;SDS011;41626;53.098;6.168;2023-04-24T08:45:51;9.40;;;4.80;;
55720;SDS011;41626;53.098;6.168;2023-04-24T08:48:18;12.40;;;5.90;;
55720;SDS011;41626;53.098;6.168;2023-04-24T08:50:44;8.05;;;5.22;;
55720;SDS011;41626;53.098;6.168;2023-04-24T08:53:10;8.60;;;4.73;;
55720;SDS011;41626;53.098;6.168;2023-04-24T08:55:37;9.10;;;4.65;;
55720;SDS011;41626;53.098;6.168;2023-04-24T08:58:03;6.93;;;4.80;;
55720;SDS011;41626;53.098;6.168;2023-04-24T09:00:29;7.83;;;5.97;;
55720;SDS011;41626;53.098;6.168;2023-04-24T09:02:55;12.95;;;5.70;;
55720;SDS011;41626;53.098;6.168;2023-04-24T09:05:22;10.18;;;4.88;;
55720;SDS011;41626;53.098;6.168;2023-04-24T09:07:54;11.55;;;5.47;;
55720;SDS011;41626;53.098;6.168;2023-04-24T09:10:21;10.40;;;4.93;;
55720;SDS011;41626;53.098;6.168;2023-04-24T09:12:50;11.15;;;5.15;;
55720;SDS011;41626;53.098;6.168;2023-04-24T09:15:16;10.75;;;5.32;;
55720;SDS011;41626;53.098;6.168;2023-04-24T09:17:43;12.15;;;5.80;;
55720;SDS011;41626;53.098;6.168;2023-04-24T09:20:09;11.82;;;5.35;;
55720;SDS011;41626;53.098;6.168;2023-04-24T09:22:36;25.17;;;6.28;;
55720;SDS011;41626;53.098;6.168;2023-04-24T09:25:02;11.47;;;5.17;;
55720;SDS011;41626;53.098;6.168;2023-04-24T09:27:30;14.60;;;5.25;;
55720;SDS011;41626;53.098;6.168;2023-04-24T09:29:57;10.20;;;4.22;;
55720;SDS011;41626;53.098;6.168;2023-04-24T09:32:23;12.70;;;4.22;;
55720;SDS011;41626;53.098;6.168;2023-04-24T09:37:37;7.63;;;3.63;;
55720;SDS011;41626;53.098;6.168;2023-04-24T09:40:19;11.20;;;3.42;;
55720;SDS011;41626;53.098;6.168;2023-04-24T09:42:55;8.93;;;3.00;;
55720;SDS011;41626;53.098;6.168;2023-04-24T09:45:43;7.38;;;2.70;;
55720;SDS011;41626;53.098;6.168;2023-04-24T09:48:08;7.88;;;3.22;;
55720;SDS011;41626;53.098;6.168;2023-04-24T09:50:35;12.02;;;3.45;;
55720;SDS011;41626;53.098;6.168;2023-04-24T09:53:01;9.63;;;3.67;;
55720;SDS011;41626;53.098;6.168;2023-04-24T09:55:28;12.32;;;3.28;;
55720;SDS011;41626;53.098;6.168;2023-04-24T09:57:57;17.73;;;5.00;;
55720;SDS011;41626;53.098;6.168;2023-04-24T10:00:26;17.27;;;3.97;;
55720;SDS011;41626;53.098;6.168;2023-04-24T10:02:57;8.60;;;3.05;;
55720;SDS011;41626;53.098;6.168;2023-04-24T10:05:24;10.93;;;2.78;;
55720;SDS011;41626;53.098;6.168;2023-04-24T10:07:55;7.10;;;2.75;;
55720;SDS011;41626;53.098;6.168;2023-04-24T10:10:22;10.80;;;2.53;;
55720;SDS011;41626;53.098;6.168;2023-04-24T10:12:48;9.82;;;2.75;;
55720;SDS011;41626;53.098;6.168;2023-04-24T10:15:16;6.22;;;2.25;;
55720;SDS011;41626;53.098;6.168;2023-04-24T10:17:46;7.78;;;2.40;;
55720;SDS011;41626;53.098;6.168;2023-04-24T10:20:22;8.10;;;2.53;;
55720;SDS011;41626;53.098;6.168;2023-04-24T10:22:50;6.47;;;2.28;;
55720;SDS011;41626;53.098;6.168;2023-04-24T10:25:18;9.70;;;2.40;;
55720;SDS011;41626;53.098;6.168;2023-04-24T10:27:49;7.95;;;2.40;;
55720;SDS011;41626;53.098;6.168;2023-04-24T10:30:16;7.75;;;2.67;;
55720;SDS011;41626;53.098;6.168;2023-04-24T10:32:43;5.70;;;1.73;;
55720;SDS011;41626;53.098;6.168;2023-04-24T10:35:09;6.72;;;2.75;;
55720;SDS011;41626;53.098;6.168;2023-04-24T10:37:40;9.10;;;2.50;;
55720;SDS011;41626;53.098;6.168;2023-04-24T10:40:11;10.40;;;2.97;;
55720;SDS011;41626;53.098;6.168;2023-04-24T10:42:42;9.38;;;2.53;;
55720;SDS011;41626;53.098;6.168;2023-04-24T10:45:16;8.07;;;2.63;;
55720;SDS011;41626;53.098;6.168;2023-04-24T10:47:50;9.65;;;2.35;;
55720;SDS011;41626;53.098;6.168;2023-04-24T10:50:21;8.90;;;2.65;;
55720;SDS011;41626;53.098;6.168;2023-04-24T10:52:47;8.48;;;2.38;;
55720;SDS011;41626;53.098;6.168;2023-04-24T10:55:15;9.25;;;2.85;;
55720;SDS011;41626;53.098;6.168;2023-04-24T11:01:00;7.55;;;1.83;;
55720;SDS011;41626;53.098;6.168;2023-04-24T11:03:27;5.40;;;1.42;;
55720;SDS011;41626;53.098;6.168;2023-04-24T11:06:01;7.93;;;2.70;;
55720;SDS011;41626;53.098;6.168;2023-04-24T11:08:31;5.70;;;1.43;;
55720;SDS011;41626;53.098;6.168;2023-04-24T11:10:58;6.80;;;1.80;;
55720;SDS011;41626;53.098;6.168;2023-04-24T11:13:26;7.38;;;1.88;;
55720;SDS011;41626;53.098;6.168;2023-04-24T11:16:12;6.13;;;2.10;;
55720;SDS011;41626;53.098;6.168;2023-04-24T11:18:49;8.43;;;2.85;;
55720;SDS011;41626;53.098;6.168;2023-04-24T11:21:19;11.10;;;2.47;;
55720;SDS011;41626;53.098;6.168;2023-04-24T11:23:47;5.97;;;1.80;;
55720;SDS011;41626;53.098;6.168;2023-04-24T11:26:17;8.70;;;2.20;;
55720;SDS011;41626;53.098;6.168;2023-04-24T11:28:48;7.57;;;2.13;;
55720;SDS011;41626;53.098;6.168;2023-04-24T11:34:10;14.80;;;2.83;;
55720;SDS011;41626;53.098;6.168;2023-04-24T11:36:37;7.45;;;1.80;;
55720;SDS011;41626;53.098;6.168;2023-04-24T11:39:03;7.13;;;1.77;;
55720;SDS011;41626;53.098;6.168;2023-04-24T11:41:29;9.07;;;3.05;;
55720;SDS011;41626;53.098;6.168;2023-04-24T11:43:55;11.75;;;2.83;;
55720;SDS011;41626;53.098;6.168;2023-04-24T11:46:22;8.88;;;2.00;;
55720;SDS011;41626;53.098;6.168;2023-04-24T11:48:48;7.70;;;2.47;;
55720;SDS011;41626;53.098;6.168;2023-04-24T11:51:13;7.17;;;1.90;;
55720;SDS011;41626;53.098;6.168;2023-04-24T11:53:39;9.40;;;2.00;;
55720;SDS011;41626;53.098;6.168;2023-04-24T11:56:08;7.07;;;1.87;;
55720;SDS011;41626;53.098;6.168;2023-04-24T11:58:38;10.70;;;2.40;;
55720;SDS011;41626;53.098;6.168;2023-04-24T12:01:04;5.03;;;1.50;;
55720;SDS011;41626;53.098;6.168;2023-04-24T12:03:30;7.00;;;2.35;;
55720;SDS011;41626;53.098;6.168;2023-04-24T12:06:11;9.32;;;2.30;;
55720;SDS011;41626;53.098;6.168;2023-04-24T12:08:37;14.38;;;2.95;;
55720;SDS011;41626;53.098;6.168;2023-04-24T12:11:04;4.57;;;1.42;;
55720;SDS011;41626;53.098;6.168;2023-04-24T12:13:32;6.05;;;1.70;;
55720;SDS011;41626;53.098;6.168;2023-04-24T12:15:58;7.75;;;1.38;;
55720;SDS011;41626;53.098;6.168;2023-04-24T12:18:26;6.60;;;1.33;;
55720;SDS011;41626;53.098;6.168;2023-04-24T12:20:52;5.43;;;1.20;;
55720;SDS011;41626;53.098;6.168;2023-04-24T12:23:33;7.33;;;1.50;;
55720;SDS011;41626;53.098;6.168;2023-04-24T12:26:05;10.18;;;2.70;;
55720;SDS011;41626;53.098;6.168;2023-04-24T12:28:34;5.60;;;1.25;;
55720;SDS011;41626;53.098;6.168;2023-04-24T12:31:01;7.38;;;1.30;;
55720;SDS011;41626;53.098;6.168;2023-04-24T12:33:27;8.07;;;1.35;;
55720;SDS011;41626;53.098;6.168;2023-04-24T12:35:53;7.57;;;2.60;;
55720;SDS011;41626;53.098;6.168;2023-04-24T12:38:24;8.60;;;1.10;;
55720;SDS011;41626;53.098;6.168;2023-04-24T12:41:04;6.07;;;1.27;;
55720;SDS011;41626;53.098;6.168;2023-04-24T12:43:35;5.93;;;1.45;;
55720;SDS011;41626;53.098;6.168;2023-04-24T12:46:01;4.57;;;0.80;;
55720;SDS011;41626;53.098;6.168;2023-04-24T12:48:27;4.70;;;1.10;;
55720;SDS011;41626;53.098;6.168;2023-04-24T12:50:54;4.25;;;1.08;;
55720;SDS011;41626;53.098;6.168;2023-04-24T12:53:21;4.57;;;0.70;;
55720;SDS011;41626;53.098;6.168;2023-04-24T12:55:47;5.68;;;0.73;;
55720;SDS011;41626;53.098;6.168;2023-04-24T12:58:20;4.65;;;0.80;;
55720;SDS011;41626;53.098;6.168;2023-04-24T13:00:47;9.25;;;1.50;;
55720;SDS011;41626;53.098;6.168;2023-04-24T13:03:13;5.45;;;1.17;;
55720;SDS011;41626;53.098;6.168;2023-04-24T13:05:39;7.32;;;1.42;;
55720;SDS011;41626;53.098;6.168;2023-04-24T13:08:05;3.65;;;0.90;;
55720;SDS011;41626;53.098;6.168;2023-04-24T13:10:31;4.17;;;0.80;;
55720;SDS011;41626;53.098;6.168;2023-04-24T13:12:57;2.27;;;0.70;;
55720;SDS011;41626;53.098;6.168;2023-04-24T13:15:22;3.22;;;0.57;;
55720;SDS011;41626;53.098;6.168;2023-04-24T13:17:49;1.63;;;0.40;;
55720;SDS011;41626;53.098;6.168;2023-04-24T13:20:15;4.00;;;0.70;;
55720;SDS011;41626;53.098;6.168;2023-04-24T13:22:41;1.63;;;0.50;;
55720;SDS011;41626;53.098;6.168;2023-04-24T13:25:06;4.75;;;0.90;;
55720;SDS011;41626;53.098;6.168;2023-04-24T13:27:32;6.15;;;1.35;;
55720;SDS011;41626;53.098;6.168;2023-04-24T13:29:58;4.10;;;0.93;;
55720;SDS011;41626;53.098;6.168;2023-04-24T13:32:24;5.13;;;1.33;;
55720;SDS011;41626;53.098;6.168;2023-04-24T13:34:50;3.65;;;1.23;;
55720;SDS011;41626;53.098;6.168;2023-04-24T13:37:15;5.38;;;1.65;;
55720;SDS011;41626;53.098;6.168;2023-04-24T13:39:41;5.00;;;1.10;;
55720;SDS011;41626;53.098;6.168;2023-04-24T13:42:07;10.07;;;1.90;;
55720;SDS011;41626;53.098;6.168;2023-04-24T13:44:33;10.38;;;2.65;;
55720;SDS011;41626;53.098;6.168;2023-04-24T13:46:59;10.10;;;1.67;;
55720;SDS011;41626;53.098;6.168;2023-04-24T13:49:25;9.07;;;2.30;;
55720;SDS011;41626;53.098;6.168;2023-04-24T13:51:52;7.13;;;2.00;;
55720;SDS011;41626;53.098;6.168;2023-04-24T13:54:20;12.40;;;2.70;;
55720;SDS011;41626;53.098;6.168;2023-04-24T13:56:47;12.48;;;2.95;;
55720;SDS011;41626;53.098;6.168;2023-04-24T13:59:12;12.48;;;2.60;;
55720;SDS011;41626;53.098;6.168;2023-04-24T14:01:38;16.20;;;2.83;;
55720;SDS011;41626;53.098;6.168;2023-04-24T14:04:04;10.70;;;2.97;;
55720;SDS011;41626;53.098;6.168;2023-04-24T14:06:29;12.60;;;2.78;;
55720;SDS011;41626;53.098;6.168;2023-04-24T14:08:56;6.95;;;2.50;;
55720;SDS011;41626;53.098;6.168;2023-04-24T14:11:22;16.92;;;3.67;;
55720;SDS011;41626;53.098;6.168;2023-04-24T14:13:47;15.02;;;3.65;;
55720;SDS011;41626;53.098;6.168;2023-04-24T14:16:13;9.05;;;2.88;;
55720;SDS011;41626;53.098;6.168;2023-04-24T14:18:39;10.10;;;2.20;;
55720;SDS011;41626;53.098;6.168;2023-04-24T14:21:05;9.60;;;2.53;;
55720;SDS011;41626;53.098;6.168;2023-04-24T14:23:31;13.85;;;3.17;;
55720;SDS011;41626;53.098;6.168;2023-04-24T14:25:57;11.50;;;2.50;;
55720;SDS011;41626;53.098;6.168;2023-04-24T14:28:23;17.37;;;5.00;;
55720;SDS011;41626;53.098;6.168;2023-04-24T14:30:50;10.23;;;3.60;;
55720;SDS011;41626;53.098;6.168;2023-04-24T14:33:16;15.20;;;4.27;;
55720;SDS011;41626;53.098;6.168;2023-04-24T14:35:41;15.50;;;3.17;;
55720;SDS011;41626;53.098;6.168;2023-04-24T14:38:07;8.57;;;2.37;;
55720;SDS011;41626;53.098;6.168;2023-04-24T14:40:33;12.35;;;2.92;;
55720;SDS011;41626;53.098;6.168;2023-04-24T14:42:59;12.20;;;3.38;;
55720;SDS011;41626;53.098;6.168;2023-04-24T14:45:25;12.00;;;3.67;;
55720;SDS011;41626;53.098;6.168;2023-04-24T14:47:52;13.00;;;3.23;;
55720;SDS011;41626;53.098;6.168;2023-04-24T14:50:18;14.55;;;3.55;;